Flight Track Log - Related Links

Times and Time Zones

All times are in EDT time to prevent confusion due to time zone crossing. See the SWA1281 flight status page for this flight to view local times or setup timezone preferences in your user account.

Time Position Orientation Groundspeed Altitude Reporting Facility
EDT Latitude Longitude Course Direction KTS MPH feet Rate Location/Type
Tue 09:05:40 AM 36.1000 -86.6833 168° South 183 211 1,400  Level Nashville TRACON
Tue 09:12:21 AM 35.5658 -86.5389 138° Southeast 351 404 16,200 2,101 Climbing Memphis Center
Tue 09:14:17 AM 35.4106 -86.3678 137° Southeast 358 412 19,500 1,807 Climbing Atlanta Center
Tue 09:15:17 AM 35.3286 -86.2739 137° Southeast 385 443 21,500 2,200 Climbing Atlanta Center
Tue 09:16:17 AM 35.2469 -86.1800 138° Southeast 397 457 23,900 2,033 Climbing Atlanta Center
Tue 09:17:18 AM 35.1631 -86.0889 138° Southeast 404 465 25,600 1,750 Climbing Atlanta Center
Tue 09:18:17 AM 35.0728 -85.9903 138° Southeast 409 471 27,400 1,613 Climbing Atlanta Center
Tue 09:19:17 AM 34.9844 -85.8919 140° Southeast 420 483 28,800 1,550 Climbing Atlanta Center
Tue 09:20:17 AM 34.8919 -85.7961 137° Southeast 433 498 30,500 1,850 Climbing Atlanta Center
Tue 09:21:17 AM 34.8058 -85.6983 138° Southeast 433 498 32,500 1,250 Climbing Atlanta Center
Tue 09:22:17 AM 34.7172 -85.6006 140° Southeast 433 498 33,000 250 Climbing Atlanta Center
Tue 09:23:17 AM 34.6244 -85.5053 137° Southeast 433 498 33,000  Level Atlanta Center
Tue 09:24:17 AM 34.5358 -85.4056 138° Southeast 433 498 33,000  Level Atlanta Center
Tue 09:25:29 AM 34.4244 -85.2853 138° Southeast 433 498 33,000  Level Atlanta Center
Tue 09:26:30 AM 34.3336 -85.1858 139° Southeast 433 498 33,000  Level Atlanta Center
Tue 09:27:29 AM 34.2428 -85.0892 138° Southeast 438 504 33,000  Level Atlanta Center
Tue 09:28:29 AM 34.1497 -84.9875 139° Southeast 449 517 33,000  Level Atlanta Center
Tue 09:29:29 AM 34.0564 -84.8889 139° Southeast 449 517 33,000  Level Atlanta Center
Tue 09:30:29 AM 33.9611 -84.7903 140° Southeast 449 517 33,000  Level Atlanta Center
Tue 09:31:30 AM 33.8697 -84.6969 136° Southeast 449 517 33,000  Level Atlanta Center
Tue 09:32:30 AM 33.7783 -84.5911 139° Southeast 449 517 33,000  Level Atlanta Center
Tue 09:33:29 AM 33.6953 -84.5058 141° Southeast 449 517 33,000  Level Atlanta Center
Tue 09:34:29 AM 33.5850 -84.4003 144° Southeast 455 524 33,000  Level Atlanta Center
Tue 09:35:42 AM 33.4831 -84.3128 146° Southeast 461 531 33,000  Level Atlanta Center
Tue 09:36:41 AM 33.3578 -84.2106 144° Southeast 461 531 33,000  Level Atlanta Center
Tue 09:37:41 AM 33.2558 -84.1233 145° Southeast 455 524 33,000  Level Atlanta Center
Tue 09:38:41 AM 33.1556 -84.0389 144° Southeast 449 517 33,000  Level Atlanta Center
Tue 09:39:41 AM 33.0742 -83.9694 145° Southeast 444 511 33,000  Level Atlanta Center
Tue 09:40:41 AM 32.9656 -83.8803 145° Southeast 444 511 33,000  Level Atlanta Center
Tue 09:42:35 AM 32.7611 -83.7078 142° Southeast 480 552 33,000 -205 Level Jacksonville Center
Tue 09:44:35 AM 32.5658 -83.5236 140° Southeast 456 525 32,200 -600 Descending Jacksonville Center
Tue 09:45:35 AM 32.4681 -83.4269 138° Southeast 451 519 31,200 -1,000 Descending Jacksonville Center
Tue 09:46:35 AM 32.3767 -83.3306 140° Southeast 446 513 30,200 -1,000 Descending Jacksonville Center
Tue 09:47:35 AM 32.2789 -83.2342 140° Southeast 453 521 29,200 -950 Descending Jacksonville Center
Tue 09:48:35 AM 32.1831 -83.1406 140° Southeast 453 521 28,300 -950 Descending Jacksonville Center
Tue 09:49:35 AM 32.0850 -83.0447 141° Southeast 453 521 27,300 -650 Descending Jacksonville Center
Tue 09:50:35 AM 32.0058 -82.9686 140° Southeast 453 521 27,000 -625 Descending Jacksonville Center
Tue 09:53:35 AM 31.7092 -82.6753 151° Southeast 453 521 24,800 -825 Descending Jacksonville Center
Tue 09:54:35 AM 31.6003 -82.6047 154° Southeast 448 516 23,700 -1,050 Descending Jacksonville Center
Tue 09:55:35 AM 31.4939 -82.5442 153° Southeast 436 502 22,700 -2,000 Descending Jacksonville Center
Tue 09:58:35 AM 31.1967 -82.3656 152° Southeast 382 440 15,700 -2,300 Descending Jacksonville Center
Tue 09:59:35 AM 31.1067 -82.3103 151° Southeast 376 433 13,500 -2,234 Descending Jacksonville Center
Tue 10:00:09 AM 31.0583 -82.2792 150° Southeast 361 415 12,200 -938 Descending Jacksonville Center
Tue 10:01:11 AM 30.9706 -82.2192 144° Southeast 365 420 12,000 -517 Descending Jacksonville Center
Tue 10:02:05 AM 30.8992 -82.1589 151° Southeast 334 384 11,200 -1,000 Descending Jacksonville Center
Tue 10:02:35 AM 30.8594 -82.1328 155° Southeast 353 406 10,600 -1,279 Descending Jacksonville Center
Tue 10:03:06 AM 30.8153 -82.1089 153° Southeast 317 365 9,900 -1,565 Descending Jacksonville Center
Tue 10:04:07 AM 30.7419 -82.0658 153° Southeast 294 338 8,200 -1,805 Descending Jacksonville Center
Tue 10:05:09 AM 30.6708 -82.0231 155° Southeast 287 330 6,200 -1,641 Descending Jacksonville Center
Tue 10:06:15 AM 30.5889 -81.9781 155° Southeast 285 328 4,700 -1,370 Descending Jacksonville Center
Tue 10:07:16 AM 30.5219 -81.9425 149° Southeast 273 314 3,300 -1,266 Descending Jacksonville Center
Tue 10:08:23 AM 30.4547 -81.8950 88° East 262 302 2,000 -639 Descending Jacksonville Center
Tue 10:09:18 AM 30.4564 -81.8297 72° East 215 247 2,000 -327 Level Jacksonville Center
Tue 10:10:13 AM 30.4706 -81.7792 71° East 184 212 1,400 -738 Descending Jacksonville Center
Tue 10:11:20 AM 30.4867 -81.7258 77° East 145 167 500 -806 Descending Jacksonville Center
Tue 10:18:32 AM 30.6518 -80.8620 77° East  Level Estimated

Login

Don't have an account? Register now (free) for customized features, flight alerts, and more!